Time;durP1;ratioP1;P1;durP2;ratioP2;P2;SDS_P1;SDS_P2;PMS_P1;PMS_P2;Temp;Humidity;BMP_temperature;BMP_pressure;BME280_temperature;BME280_humidity;BME280_pressure;Samples;Min_cycle;Max_cycle;Signal;HPM_P1;HPM_P2
2022/03/19 00:01:39;;;;;;;15.02;2.63;;;4.40;99.90;;;;;;5139529;27;20078;-79
2022/03/19 00:04:05;;;;;;;8.27;1.83;;;4.40;99.90;;;;;;5141047;27;20062;-79
2022/03/19 00:06:31;;;;;;;;;;;4.40;99.90;;;;;;5143019;27;20031;-79
2022/03/19 00:08:57;;;;;;;6.37;1.83;;;4.40;99.90;;;;;;5116811;28;19930;-78
2022/03/19 00:11:23;;;;;;;;;;;4.30;99.90;;;;;;5136598;27;20043;-79
2022/03/19 00:13:49;;;;;;;9.07;1.83;;;4.30;99.90;;;;;;5152528;27;19963;-79
2022/03/19 00:16:15;;;;;;;5.68;1.50;;;4.20;99.90;;;;;;5138512;27;21007;-79
2022/03/19 00:18:42;;;;;;;7.15;1.73;;;4.20;99.90;;;;;;5143781;27;20042;-79
2022/03/19 00:21:08;;;;;;;6.35;1.88;;;4.20;99.90;;;;;;5153682;27;20378;-79
2022/03/19 00:23:36;;;;;;;;;;;4.20;99.90;;;;;;5144868;27;20038;-79
2022/03/19 00:26:02;;;;;;;6.40;1.70;;;4.10;99.90;;;;;;5154547;27;19922;-79
2022/03/19 00:28:27;;;;;;;;;;;4.10;99.90;;;;;;5140851;27;20495;-79
2022/03/19 00:30:53;;;;;;;6.40;1.98;;;4.10;99.90;;;;;;5131321;27;19919;-79
2022/03/19 00:33:19;;;;;;;;;;;4.00;99.90;;;;;;5157936;27;20073;-80
2022/03/19 00:35:44;;;;;;;8.57;2.60;;;4.00;99.90;;;;;;5150972;27;20396;-80
2022/03/19 00:38:10;;;;;;;;;;;3.90;99.90;;;;;;5138487;27;20050;-80
2022/03/19 00:40:36;;;;;;;8.73;1.73;;;3.90;99.90;;;;;;5152134;27;20327;-80
2022/03/19 00:43:02;;;;;;;;;;;3.90;99.90;;;;;;5136389;27;20054;-79
2022/03/19 00:45:28;;;;;;;6.25;1.73;;;3.80;99.90;;;;;;5131012;27;19919;-80
2022/03/19 00:47:54;;;;;;;6.45;1.95;;;3.80;99.90;;;;;;5147722;27;20393;-80
2022/03/19 00:50:20;;;;;;;6.28;1.58;;;3.80;99.90;;;;;;5147529;27;20035;-80
2022/03/19 00:52:49;;;;;;;;;;;3.70;99.90;;;;;;5151147;27;20042;-81
2022/03/19 00:55:14;;;;;;;8.70;1.65;;;3.70;99.90;;;;;;5138364;27;20267;-80
2022/03/19 00:57:40;;;;;;;;;;;3.70;99.90;;;;;;5120347;27;20198;-78
2022/03/19 01:00:06;;;;;;;9.40;2.03;;;3.70;99.90;;;;;;5148707;27;19929;-80
2022/03/19 01:02:34;;;;;;;8.95;1.92;;;3.60;99.90;;;;;;5158851;27;20131;-80
2022/03/19 01:05:00;;;;;;;8.45;1.77;;;3.60;99.90;;;;;;5146483;27;20050;-79
2022/03/19 01:07:25;;;;;;;;;;;3.60;99.90;;;;;;5134341;27;20039;-80
2022/03/19 01:09:51;;;;;;;7.07;1.83;;;3.60;99.90;;;;;;5130397;27;20286;-79
2022/03/19 01:12:16;;;;;;;;;;;3.50;99.90;;;;;;5125874;27;20039;-78
2022/03/19 01:14:42;;;;;;;9.05;1.75;;;3.50;99.90;;;;;;5155043;27;19927;-79
2022/03/19 01:17:08;;;;;;;;;;;3.40;99.90;;;;;;5124854;27;20129;-80
2022/03/19 01:19:57;;;;;;;5.45;1.58;;;3.40;99.90;;;;;;5132666;27;20686;-80
2022/03/19 01:22:23;;;;;;;9.23;1.60;;;3.40;99.90;;;;;;5134095;27;20091;-78
2022/03/19 01:24:49;;;;;;;;;;;3.40;99.90;;;;;;5142270;27;20035;-80
2022/03/19 01:27:15;;;;;;;8.75;1.80;;;3.30;99.90;;;;;;5134061;27;19919;-79
2022/03/19 01:29:40;;;;;;;;;;;4.00;99.90;;;;;;5141930;27;20050;-79
2022/03/19 01:32:06;;;;;;;6.10;1.52;;;3.20;99.90;;;;;;5124749;27;20030;-79
2022/03/19 01:34:32;;;;;;;;;;;3.20;99.90;;;;;;5128406;27;20031;-79
2022/03/19 01:36:57;;;;;;;7.00;1.70;;;3.20;99.90;;;;;;5157110;27;20010;-80
2022/03/19 01:39:23;;;;;;;;;;;3.20;99.90;;;;;;5139506;27;20038;-80
2022/03/19 01:41:48;;;;;;;4.10;1.40;;;3.10;99.90;;;;;;5156245;27;20592;-80
2022/03/19 01:44:19;;;;;;;5.03;1.55;;;3.10;99.90;;;;;;5137883;27;20039;-80
2022/03/19 01:47:02;;;;;;;7.15;1.52;;;3.10;99.90;;;;;;5156815;27;20513;-80
2022/03/19 01:49:29;;;;;;;18.08;2.10;;;3.00;99.90;;;;;;5135851;27;20086;-80
2022/03/19 01:51:55;;;;;;;7.18;1.95;;;3.00;99.90;;;;;;5156449;27;20045;-80
2022/03/19 01:54:28;;;;;;;;;;;3.00;99.90;;;;;;5138210;27;20042;-80
2022/03/19 01:56:54;;;;;;;7.43;1.75;;;3.00;99.90;;;;;;5156152;27;19926;-80
2022/03/19 01:59:22;;;;;;;8.23;1.88;;;3.00;99.90;;;;;;5124954;27;20042;-80
2022/03/19 02:01:49;;;;;;;4.72;1.52;;;3.00;99.90;;;;;;5148059;27;20661;-80
2022/03/19 02:04:15;;;;;;;12.43;2.10;;;3.00;99.90;;;;;;5117165;27;20043;-80
2022/03/19 02:06:40;;;;;;;;;;;2.90;99.90;;;;;;5136094;27;20512;-80
2022/03/19 02:09:09;;;;;;;9.32;1.90;;;2.90;99.90;;;;;;5134822;27;20365;-80
2022/03/19 02:11:35;;;;;;;9.90;2.13;;;2.90;99.90;;;;;;5135691;27;20134;-80
2022/03/19 02:14:01;;;;;;;8.90;2.08;;;2.90;99.90;;;;;;5135387;27;20091;-80
2022/03/19 02:16:27;;;;;;;;;;;2.90;99.90;;;;;;5135133;27;20451;-80
2022/03/19 02:18:52;;;;;;;4.70;1.30;;;2.90;99.90;;;;;;5116962;27;19972;-80
2022/03/19 02:21:18;;;;;;;7.15;1.52;;;2.90;99.90;;;;;;5135167;27;20079;-80
2022/03/19 02:26:42;;;;;;;6.05;1.77;;;2.80;99.90;;;;;;5136138;27;19920;-80
2022/03/19 02:29:08;;;;;;;10.55;2.33;;;2.80;99.90;;;;;;5116528;27;20091;-80
2022/03/19 02:31:33;;;;;;;;;;;2.80;99.90;;;;;;5116389;27;20059;-80
2022/03/19 02:33:59;;;;;;;10.18;2.10;;;2.80;99.90;;;;;;5135024;27;20360;-81
2022/03/19 02:36:25;;;;;;;7.18;1.75;;;2.80;99.90;;;;;;5134748;27;20039;-80
2022/03/19 02:38:51;;;;;;;;;;;2.90;99.90;;;;;;5135115;27;20130;-80
2022/03/19 02:41:17;;;;;;;7.35;2.10;;;2.90;99.90;;;;;;5134827;27;19923;-81
2022/03/19 02:43:42;;;;;;;;;;;2.90;99.90;;;;;;5153989;27;20459;-80
2022/03/19 02:46:08;;;;;;;10.27;2.03;;;2.90;99.90;;;;;;5155381;27;19919;-80
2022/03/19 02:48:34;;;;;;;;;;;2.90;99.90;;;;;;5156205;27;20035;-81
2022/03/19 02:51:00;;;;;;;11.45;1.95;;;2.90;99.90;;;;;;5155204;27;20033;-80
2022/03/19 02:53:29;;;;;;;9.60;1.98;;;2.90;99.90;;;;;;5155166;27;20058;-80
2022/03/19 02:55:54;;;;;;;6.32;2.30;;;2.90;99.90;;;;;;5140688;27;20070;-80
2022/03/19 02:58:23;;;;;;;;;;;2.90;99.90;;;;;;5134398;27;20066;-80
2022/03/19 03:00:49;;;;;;;6.97;2.20;;;3.30;99.90;;;;;;5135008;27;19923;-81
2022/03/19 03:03:15;;;;;;;6.40;2.05;;;2.90;99.90;;;;;;5152535;27;20457;-80
2022/03/19 03:05:40;;;;;;;;;;;2.90;99.90;;;;;;5127663;27;20122;-80
2022/03/19 03:08:06;;;;;;;5.68;1.70;;;2.90;99.90;;;;;;5134017;27;20381;-80
2022/03/19 03:10:32;;;;;;;;;;;2.90;99.90;;;;;;5134950;27;20043;-80
2022/03/19 03:13:00;;;;;;;7.15;2.13;;;2.90;99.90;;;;;;5148072;27;19919;-81
2022/03/19 03:15:25;;;;;;;10.10;2.60;;;2.90;99.90;;;;;;5136646;27;20047;-80
2022/03/19 03:17:51;;;;;;;;;;;2.90;99.90;;;;;;5137264;27;20516;-80
2022/03/19 03:20:16;;;;;;;6.60;2.10;;;2.90;99.90;;;;;;5152354;27;19919;-80
2022/03/19 03:22:44;;;;;;;;;;;2.90;99.90;;;;;;5155267;27;20067;-80
2022/03/19 03:25:10;;;;;;;;;;;2.90;99.90;;;;;;5155376;27;19964;-81
2022/03/19 03:27:36;;;;;;;8.52;1.98;;;2.90;99.90;;;;;;5154362;27;20337;-80
2022/03/19 03:30:02;;;;;;;5.45;1.98;;;2.90;99.90;;;;;;5136069;27;20078;-79
2022/03/19 03:32:28;;;;;;;7.70;2.30;;;2.90;99.90;;;;;;5136267;27;20051;-80
2022/03/19 03:34:54;;;;;;;;;;;2.80;99.90;;;;;;5153061;27;20481;-79
2022/03/19 03:37:19;;;;;;;10.93;2.15;;;2.80;99.90;;;;;;5153836;27;19962;-80
2022/03/19 03:39:45;;;;;;;;;;;2.90;99.90;;;;;;5136621;27;20050;-79
2022/03/19 03:42:11;;;;;;;5.70;2.13;;;2.80;99.90;;;;;;5153995;27;20014;-79
2022/03/19 03:44:39;;;;;;;8.07;2.58;;;2.90;99.90;;;;;;5154084;27;20065;-79
2022/03/19 03:47:05;;;;;;;8.40;2.42;;;2.90;99.90;;;;;;5154153;27;20103;-79
2022/03/19 03:49:31;;;;;;;;;;;3.00;99.90;;;;;;5155072;27;20039;-79
2022/03/19 03:51:57;;;;;;;5.93;2.53;;;2.90;99.90;;;;;;5115389;27;20378;-79
2022/03/19 03:54:22;;;;;;;;;;;3.00;99.90;;;;;;5133693;27;20043;-80
2022/03/19 03:56:48;;;;;;;7.43;2.45;;;3.00;99.90;;;;;;5133848;27;19920;-80
2022/03/19 03:59:14;;;;;;;;;;;3.00;99.90;;;;;;5134195;27;20047;-81
2022/03/19 04:01:39;;;;;;;10.82;2.83;;;3.00;99.90;;;;;;5133018;27;19950;-80
2022/03/19 04:04:05;;;;;;;;;;;3.10;99.90;;;;;;5133612;27;20055;-80
2022/03/19 04:06:30;;;;;;;10.20;2.80;;;3.10;99.90;;;;;;5134711;27;19919;-80
2022/03/19 04:08:56;;;;;;;;;;;3.10;99.90;;;;;;5133819;27;20126;-80
2022/03/19 04:11:21;;;;;;;9.45;2.95;;;3.00;99.90;;;;;;5115145;28;19951;-80
2022/03/19 04:13:47;;;;;;;;;;;3.10;99.90;;;;;;5134005;28;20043;-80
2022/03/19 04:16:12;;;;;;;9.75;2.80;;;3.00;99.90;;;;;;5132600;28;19916;-80
2022/03/19 04:18:38;;;;;;;;;;;3.00;99.90;;;;;;5134175;28;20505;-80
2022/03/19 04:21:04;;;;;;;11.80;2.80;;;3.00;99.90;;;;;;5145256;27;19923;-80
2022/03/19 04:23:29;;;;;;;9.65;3.22;;;2.90;99.90;;;;;;5135064;27;20089;-80
2022/03/19 04:25:55;;;;;;;;;;;2.90;99.90;;;;;;5154493;27;20046;-80
2022/03/19 04:28:21;;;;;;;7.45;2.50;;;2.90;99.90;;;;;;5135400;27;19915;-80
2022/03/19 04:30:47;;;;;;;;;;;2.80;99.90;;;;;;5153910;27;20050;-80
2022/03/19 04:33:19;;;;;;;10.40;3.40;;;2.90;99.90;;;;;;5153655;27;19926;-81
2022/03/19 04:38:28;;;;;;;8.48;2.78;;;2.80;99.90;;;;;;5114512;28;20047;-80
2022/03/19 04:40:54;;;;;;;;;;;2.80;99.90;;;;;;5133679;28;20078;-81
2022/03/19 04:43:20;;;;;;;7.25;3.05;;;2.80;99.90;;;;;;5114436;28;19921;-80
2022/03/19 04:45:48;;;;;;;8.18;2.80;;;2.80;99.90;;;;;;5133295;28;20043;-80
2022/03/19 04:48:14;;;;;;;15.23;3.10;;;2.70;99.90;;;;;;5133091;28;20073;-81
2022/03/19 04:50:40;;;;;;;;;;;2.70;99.90;;;;;;5141461;27;20388;-80
2022/03/19 04:53:07;;;;;;;11.68;3.22;;;2.60;99.90;;;;;;5153423;27;19923;-80
2022/03/19 04:55:34;;;;;;;10.43;2.90;;;2.60;99.90;;;;;;5154127;27;20120;-80
2022/03/19 04:57:59;;;;;;;15.93;5.22;;;2.60;99.90;;;;;;5156876;27;20608;-80
2022/03/19 05:00:25;;;;;;;;;;;2.60;99.90;;;;;;5157818;27;20130;-80
2022/03/19 05:02:51;;;;;;;9.15;3.42;;;2.60;99.90;;;;;;5157522;27;19961;-80
2022/03/19 05:05:16;;;;;;;;;;;2.60;99.90;;;;;;5155802;27;20062;-80
2022/03/19 05:07:42;;;;;;;8.48;3.08;;;2.50;99.90;;;;;;5156955;27;20374;-81
2022/03/19 05:12:53;;;;;;;11.65;3.72;;;2.50;99.90;;;;;;5137873;27;20270;-81
2022/03/19 05:15:18;;;;;;;12.18;3.42;;;2.40;99.90;;;;;;5157342;27;20038;-81
2022/03/19 05:17:44;;;;;;;;;;;2.40;99.90;;;;;;5157931;27;20031;-81
2022/03/19 05:20:11;;;;;;;11.27;3.55;;;2.40;99.90;;;;;;5136583;27;20440;-81
2022/03/19 05:22:37;;;;;;;9.70;3.42;;;2.40;99.90;;;;;;5138789;27;20071;-80
2022/03/19 05:25:04;;;;;;;15.07;4.07;;;2.40;99.90;;;;;;5138843;27;20055;-81
2022/03/19 05:27:30;;;;;;;16.20;3.97;;;2.50;99.90;;;;;;5156463;27;20397;-81
2022/03/19 05:29:56;;;;;;;;;;;2.50;99.90;;;;;;5138762;27;20054;-80
2022/03/19 05:32:22;;;;;;;7.85;3.83;;;2.50;99.90;;;;;;5156607;27;19925;-81
2022/03/19 05:34:48;;;;;;;;;;;2.50;99.90;;;;;;5138273;27;20031;-80
2022/03/19 05:37:14;;;;;;;11.60;3.77;;;2.50;99.90;;;;;;5156105;27;19918;-81
2022/03/19 05:39:41;;;;;;;11.10;4.32;;;2.50;99.90;;;;;;5156461;27;20308;-80
2022/03/19 05:42:09;;;;;;;;;;;2.60;99.90;;;;;;5156843;27;20045;-80
2022/03/19 05:44:35;;;;;;;13.25;4.43;;;2.60;99.90;;;;;;5156972;27;19919;-80
2022/03/19 05:47:00;;;;;;;;;;;2.60;99.90;;;;;;5138459;27;20035;-80
2022/03/19 05:49:28;;;;;;;11.65;3.80;;;2.60;99.90;;;;;;5156502;27;20354;-81
2022/03/19 05:51:54;;;;;;;9.90;4.55;;;2.60;99.90;;;;;;5136121;27;20051;-80
2022/03/19 05:54:20;;;;;;;10.13;3.72;;;2.70;99.90;;;;;;5155686;27;20030;-80
2022/03/19 05:56:45;;;;;;;;;;;2.80;99.90;;;;;;5136656;27;20474;-80
2022/03/19 05:59:11;;;;;;;12.85;4.10;;;3.40;99.90;;;;;;5135514;27;20704;-80
2022/03/19 06:01:46;;;;;;;13.13;4.78;;;2.80;99.90;;;;;;5135249;27;20038;-81
2022/03/19 06:04:12;;;;;;;12.27;4.93;;;2.80;99.90;;;;;;5135016;27;20521;-81
2022/03/19 06:06:37;;;;;;;;;;;2.80;99.90;;;;;;5137506;27;20066;-81
2022/03/19 06:09:04;;;;;;;12.68;4.97;;;2.90;99.90;;;;;;5135395;27;20243;-80
2022/03/19 06:11:30;;;;;;;10.85;4.60;;;2.90;99.90;;;;;;5156176;27;20043;-80
2022/03/19 06:13:56;;;;;;;;;;;2.90;99.90;;;;;;5156611;27;20046;-81
2022/03/19 06:16:21;;;;;;;8.93;3.80;;;2.90;99.90;;;;;;5155553;27;19970;-81
2022/03/19 06:18:50;;;;;;;;;;;2.90;99.90;;;;;;5156706;27;20034;-81
2022/03/19 06:21:16;;;;;;;11.07;4.75;;;2.80;99.90;;;;;;5153620;27;20391;-81
2022/03/19 06:23:44;;;;;;;11.98;4.65;;;2.80;99.90;;;;;;5149555;27;20035;-81
2022/03/19 06:26:10;;;;;;;13.02;4.68;;;2.80;99.90;;;;;;5143974;27;20414;-81
2022/03/19 06:28:36;;;;;;;14.10;4.38;;;2.80;99.90;;;;;;5156095;27;20407;-80
2022/03/19 06:31:01;;;;;;;;;;;2.80;99.90;;;;;;5155973;27;20050;-81
2022/03/19 06:33:27;;;;;;;9.38;4.20;;;2.80;99.90;;;;;;5136972;27;19919;-81
2022/03/19 06:38:37;;;;;;;10.98;4.78;;;2.90;99.90;;;;;;5134953;27;20494;-81
2022/03/19 06:41:02;;;;;;;;;;;2.90;99.90;;;;;;5117019;27;20054;-81
2022/03/19 06:43:28;;;;;;;14.93;5.07;;;3.00;99.90;;;;;;5133846;27;20335;-81
2022/03/19 06:45:58;;;;;;;;;;;3.00;99.90;;;;;;5118109;27;20066;-81
2022/03/19 06:48:27;;;;;;;13.88;4.90;;;3.10;99.90;;;;;;5134580;27;20335;-81
2022/03/19 06:50:56;;;;;;;14.00;4.90;;;3.10;99.90;;;;;;5134153;27;20058;-80
2022/03/19 06:53:23;;;;;;;15.27;5.70;;;3.20;99.90;;;;;;5134243;27;20078;-80
2022/03/19 06:55:49;;;;;;;11.55;4.70;;;3.20;99.90;;;;;;5134653;27;20031;-80
2022/03/19 06:58:14;;;;;;;;;;;3.30;99.90;;;;;;5116098;27;20099;-82
2022/03/19 07:00:41;;;;;;;14.07;4.88;;;3.40;99.90;;;;;;5116172;27;19919;-80
2022/03/19 07:03:07;;;;;;;13.43;5.20;;;3.40;99.90;;;;;;5137487;27;20119;-80
2022/03/19 07:05:33;;;;;;;12.88;5.43;;;3.50;99.90;;;;;;5143468;27;20039;-81
2022/03/19 07:07:59;;;;;;;;;;;3.60;99.90;;;;;;5146556;27;20390;-80
2022/03/19 07:10:25;;;;;;;13.38;5.10;;;3.70;99.90;;;;;;5144260;27;19925;-80
2022/03/19 07:12:52;;;;;;;;;;;3.80;99.90;;;;;;5144842;27;20039;-80
2022/03/19 07:15:20;;;;;;;13.48;6.05;;;3.90;99.90;;;;;;5123938;27;19969;-79
2022/03/19 07:17:46;;;;;;;11.90;5.05;;;4.00;99.90;;;;;;5144316;27;20578;-80
2022/03/19 07:20:14;;;;;;;13.68;5.60;;;4.10;99.90;;;;;;5144958;27;20063;-80
2022/03/19 07:22:46;;;;;;;11.48;6.05;;;4.20;99.90;;;;;;5142603;27;20043;-80
2022/03/19 07:25:15;;;;;;;14.57;5.70;;;4.30;99.90;;;;;;5118544;27;20054;-81
2022/03/19 07:27:41;;;;;;;12.95;5.80;;;4.50;99.90;;;;;;5145770;27;20054;-81
2022/03/19 07:30:07;;;;;;;;;;;4.60;99.90;;;;;;5150477;27;20058;-80
2022/03/19 07:32:33;;;;;;;14.77;5.80;;;4.70;99.90;;;;;;5135493;27;19926;-85
2022/03/19 07:35:00;;;;;;;;;;;4.90;99.90;;;;;;5135548;27;20043;-82
2022/03/19 07:37:28;;;;;;;14.63;5.93;;;5.00;99.90;;;;;;5140333;27;19919;-82
2022/03/19 07:39:57;;;;;;;11.63;5.20;;;5.20;99.90;;;;;;5134555;27;20129;-80
2022/03/19 07:42:23;;;;;;;17.35;5.85;;;5.40;99.90;;;;;;5154795;27;20264;-82
2022/03/19 07:44:50;;;;;;;;;;;5.50;99.90;;;;;;5152033;27;20042;-79
2022/03/19 07:47:17;;;;;;;16.27;6.32;;;5.70;99.90;;;;;;5146281;27;19927;-76
2022/03/19 07:49:43;;;;;;;14.93;6.20;;;6.70;99.90;;;;;;5154050;27;20477;-81
2022/03/19 07:52:09;;;;;;;14.10;6.25;;;8.10;99.90;;;;;;5151060;27;20557;-79
2022/03/19 07:54:36;;;;;;;;;;;9.40;99.90;;;;;;5135700;27;20043;-75
2022/03/19 07:57:06;;;;;;;13.88;7.55;;;10.40;99.90;;;;;;5154698;27;19966;-82
2022/03/19 07:59:32;;;;;;;13.70;8.07;;;11.40;99.90;;;;;;5154803;27;20031;-81
2022/03/19 08:01:58;;;;;;;12.15;5.63;;;12.20;99.90;;;;;;5119686;27;20390;-79
2022/03/19 08:04:24;;;;;;;;;;;12.80;99.90;;;;;;5135767;27;20047;-86
2022/03/19 08:06:56;;;;;;;14.43;5.22;;;13.20;99.90;;;;;;5133448;27;20319;-83
2022/03/19 08:09:23;;;;;;;12.90;5.38;;;13.80;99.90;;;;;;5113676;27;20500;-80
2022/03/19 08:11:52;;;;;;;11.30;4.72;;;14.10;99.90;;;;;;5114660;28;20039;-81
2022/03/19 08:14:19;;;;;;;11.70;5.40;;;15.60;99.90;;;;;;5133257;28;20058;-81
2022/03/19 08:16:47;;;;;;;15.20;10.38;;;15.00;99.90;;;;;;5114965;28;20130;-80
2022/03/19 08:19:14;;;;;;;12.07;7.93;;;15.90;98.30;;;;;;5133017;27;20035;-84
2022/03/19 08:21:45;;;;;;;15.95;5.30;;;15.60;96.50;;;;;;5134286;27;20131;-83
2022/03/19 08:24:12;;;;;;;8.95;4.55;;;15.80;95.50;;;;;;5132298;27;20484;-82
2022/03/19 08:26:38;;;;;;;11.20;4.70;;;16.40;96.50;;;;;;5115282;28;20099;-88
2022/03/19 08:29:07;;;;;;;9.38;4.38;;;16.70;95.70;;;;;;5131861;28;20057;-79
2022/03/19 08:31:33;;;;;;;11.52;4.93;;;16.60;93.80;;;;;;5134684;27;20047;-82
2022/03/19 08:33:59;;;;;;;8.20;4.10;;;16.60;95.20;;;;;;5123301;27;20039;-80
2022/03/19 08:36:27;;;;;;;9.55;4.30;;;17.00;95.50;;;;;;5157444;27;20091;-81
2022/03/19 08:41:40;;;;;;;13.48;4.75;;;17.40;94.40;;;;;;5140804;27;20039;-86
2022/03/19 08:44:06;;;;;;;12.20;5.07;;;17.90;93.00;;;;;;5142204;27;20489;-81
2022/03/19 08:46:32;;;;;;;14.27;6.10;;;18.40;91.10;;;;;;5159137;27;20091;-87
2022/03/19 08:48:58;;;;;;;14.15;10.25;;;18.40;89.70;;;;;;5147774;27;20043;-88
2022/03/19 08:51:42;;;;;;;11.98;5.75;;;18.70;87.90;;;;;;5148211;27;20095;-92
2022/03/19 08:54:10;;;;;;;7.43;3.92;;;18.50;87.80;;;;;;5123975;27;20122;-84
2022/03/19 08:56:36;;;;;;;11.88;4.53;;;19.20;81.20;;;;;;5120307;27;20051;-84
2022/03/19 08:59:03;;;;;;;9.45;3.67;;;18.90;76.90;;;;;;5138217;27;20053;-86
2022/03/19 09:01:29;;;;;;;9.10;3.78;;;19.40;80.00;;;;;;5156328;27;20441;-80
2022/03/19 09:03:55;;;;;;;12.85;3.88;;;19.40;75.10;;;;;;5140742;27;20043;-78
2022/03/19 09:06:21;;;;;;;9.60;4.20;;;19.80;78.00;;;;;;5118188;27;20130;-81
2022/03/19 09:08:49;;;;;;;10.80;4.07;;;19.70;73.10;;;;;;5155586;27;20174;-78
2022/03/19 09:11:19;;;;;;;8.18;4.05;;;20.00;71.90;;;;;;5135327;27;20058;-78
2022/03/19 09:13:49;;;;;;;8.65;3.80;;;20.40;69.80;;;;;;5118736;27;20047;-82
2022/03/19 09:16:18;;;;;;;11.00;3.60;;;20.50;67.40;;;;;;5135521;27;20135;-79
2022/03/19 09:18:44;;;;;;;8.75;3.22;;;20.20;64.10;;;;;;5145270;27;20034;-80
2022/03/19 09:21:09;;;;;;;10.43;3.38;;;20.10;64.70;;;;;;5147077;27;20195;-80
2022/03/19 09:23:35;;;;;;;7.25;3.30;;;19.00;60.20;;;;;;5145272;27;20490;-79
2022/03/19 09:26:01;;;;;;;7.22;2.88;;;19.50;59.40;;;;;;5136468;27;20053;-77
2022/03/19 09:28:30;;;;;;;9.77;3.92;;;19.10;61.10;;;;;;5154878;27;20091;-75
2022/03/19 09:30:55;;;;;;;8.57;3.53;;;19.50;61.50;;;;;;5157435;27;20465;-80
2022/03/19 09:33:21;;;;;;;6.55;2.90;;;20.10;62.70;;;;;;5156514;27;20047;-80
2022/03/19 09:35:47;;;;;;;9.27;4.30;;;20.00;57.40;;;;;;5156713;27;20080;-76
2022/03/19 09:38:14;;;;;;;8.35;2.78;;;19.20;55.90;;;;;;5156993;27;20122;-80
2022/03/19 09:40:41;;;;;;;11.45;3.17;;;19.00;58.20;;;;;;5131294;27;20042;-84
2022/03/19 09:43:07;;;;;;;7.10;2.97;;;19.20;59.30;;;;;;5155661;27;20126;-81
2022/03/19 09:45:34;;;;;;;8.82;3.25;;;19.00;58.50;;;;;;5127105;27;20087;-86
2022/03/19 09:48:01;;;;;;;7.90;2.97;;;18.70;57.40;;;;;;5115541;27;20043;-82
2022/03/19 09:50:26;;;;;;;8.55;3.10;;;18.90;58.10;;;;;;5115888;27;20400;-82
2022/03/19 09:52:54;;;;;;;6.15;2.85;;;19.10;57.90;;;;;;5135133;27;20043;-84
2022/03/19 09:55:21;;;;;;;8.88;4.10;;;19.10;55.20;;;;;;5135214;27;20546;-80
2022/03/19 09:57:47;;;;;;;6.55;3.60;;;19.40;56.00;;;;;;5135543;27;20035;-81
2022/03/19 10:00:13;;;;;;;8.38;2.90;;;19.60;56.60;;;;;;5134144;27;20082;-81
2022/03/19 10:02:55;;;;;;;6.57;2.30;;;19.80;56.50;;;;;;5132574;27;20130;-82
2022/03/19 10:10:51;;;;;;;7.07;2.90;;;20.50;53.10;;;;;;5137329;27;20133;-81
2022/03/19 10:13:17;;;;;;;6.93;3.10;;;20.70;51.30;;;;;;5154986;27;20122;-80
2022/03/19 10:15:43;;;;;;;9.02;2.80;;;20.60;51.00;;;;;;5145671;27;20474;-81
2022/03/19 10:18:10;;;;;;;7.55;2.60;;;20.10;50.30;;;;;;5135342;27;20053;-82
2022/03/19 10:20:36;;;;;;;7.45;2.70;;;20.50;50.30;;;;;;5138443;27;20051;-81
2022/03/19 10:23:03;;;;;;;8.07;3.05;;;19.70;49.70;;;;;;5144242;27;20039;-80
2022/03/19 10:25:30;;;;;;;7.10;2.58;;;20.10;50.70;;;;;;5155969;27;20041;-81
2022/03/19 10:28:09;;;;;;;6.30;2.53;;;20.60;51.90;;;;;;5138857;27;20031;-84
2022/03/19 10:30:41;;;;;;;6.97;2.42;;;21.00;52.10;;;;;;5151265;27;20477;-82
2022/03/19 10:33:12;;;;;;;5.40;2.72;;;21.30;51.00;;;;;;5130266;27;20130;-84
2022/03/19 10:35:41;;;;;;;6.82;2.58;;;21.90;50.70;;;;;;5144253;27;20034;-85
2022/03/19 10:38:22;;;;;;;10.30;2.42;;;22.40;49.90;;;;;;5119960;27;20442;-79
2022/03/19 10:40:49;;;;;;;5.38;2.30;;;21.90;48.10;;;;;;5127950;27;20118;-80
2022/03/19 10:43:18;;;;;;;5.28;2.00;;;21.60;47.80;;;;;;5144312;27;20045;-79
2022/03/19 10:45:49;;;;;;;8.20;2.33;;;21.60;49.40;;;;;;5144091;27;20035;-80
2022/03/19 10:48:22;;;;;;;5.53;1.90;;;21.10;49.60;;;;;;5142477;27;20405;-79
2022/03/19 10:50:49;;;;;;;6.68;2.28;;;20.90;46.70;;;;;;5143211;27;20055;-78
2022/03/19 10:53:19;;;;;;;7.10;2.13;;;21.40;47.70;;;;;;5144986;27;20044;-80
2022/03/19 10:55:44;;;;;;;4.90;2.08;;;21.10;46.30;;;;;;5144356;27;20126;-84
2022/03/19 10:58:11;;;;;;;9.20;2.60;;;21.10;47.30;;;;;;5142926;27;20405;-83
2022/03/19 11:00:36;;;;;;;6.53;2.42;;;20.60;49.20;;;;;;5149728;27;20136;-83
2022/03/19 11:03:27;;;;;;;6.53;2.30;;;21.00;49.70;;;;;;5143678;27;20470;-82
2022/03/19 11:06:00;;;;;;;5.63;2.47;;;21.40;48.80;;;;;;5147483;27;20038;-79
2022/03/19 11:08:28;;;;;;;5.85;2.35;;;20.60;48.30;;;;;;5138145;27;20038;-76
2022/03/19 11:10:58;;;;;;;5.95;2.05;;;20.50;48.80;;;;;;5150935;27;20035;-80
2022/03/19 11:13:27;;;;;;;5.05;2.28;;;20.40;48.60;;;;;;5133730;27;20055;-83
2022/03/19 11:15:57;;;;;;;5.00;1.80;;;20.20;48.80;;;;;;5115626;27;20047;-78
2022/03/19 11:18:23;;;;;;;5.65;2.22;;;20.60;48.30;;;;;;5118399;27;20458;-77
2022/03/19 11:20:50;;;;;;;6.18;2.25;;;20.50;46.80;;;;;;5154985;27;20053;-81
2022/03/19 11:23:26;;;;;;;6.68;1.90;;;20.60;46.80;;;;;;5149149;27;20053;-77
2022/03/19 11:25:54;;;;;;;4.32;1.80;;;20.60;46.90;;;;;;5143812;27;20409;-78
2022/03/19 11:28:20;;;;;;;6.20;2.03;;;20.80;47.70;;;;;;5141161;27;20469;-81
2022/03/19 11:31:07;;;;;;;5.32;1.92;;;20.10;47.00;;;;;;5147250;27;20086;-82
2022/03/19 11:33:36;;;;;;;4.50;1.58;;;20.40;47.50;;;;;;5139468;27;20035;-78
2022/03/19 11:36:09;;;;;;;4.90;1.80;;;20.20;44.30;;;;;;5125425;27;20047;-79
2022/03/19 11:38:54;;;;;;;4.90;1.80;;;19.90;47.00;;;;;;5146319;27;20102;-80
2022/03/19 11:41:29;;;;;;;4.35;1.83;;;20.30;48.10;;;;;;5134396;27;20129;-82
2022/03/19 11:44:23;;;;;;;7.18;1.95;;;20.60;47.50;;;;;;5133233;27;20042;-82
2022/03/19 11:47:00;;;;;;;5.90;1.80;;;20.90;47.30;;;;;;5126991;27;20070;-80
2022/03/19 11:49:48;;;;;;;5.22;2.17;;;20.70;47.30;;;;;;5128757;27;20914;-78
2022/03/19 11:52:37;;;;;;;5.60;1.70;;;20.30;46.10;;;;;;5133938;27;20039;-79
2022/03/19 11:55:08;;;;;;;5.40;1.50;;;20.40;45.00;;;;;;5090173;27;20051;-80
2022/03/19 11:58:00;;;;;;;5.43;1.55;;;20.20;45.50;;;;;;5129760;27;20099;-82
2022/03/19 12:00:31;;;;;;;5.88;2.05;;;20.20;46.80;;;;;;5111071;27;20050;-82
2022/03/19 12:03:16;;;;;;;10.52;2.38;;;20.50;47.40;;;;;;5130046;27;20506;-78
2022/03/19 12:05:47;;;;;;;5.07;2.00;;;20.70;47.10;;;;;;5129088;27;20140;-79
2022/03/19 12:08:24;;;;;;;4.03;1.58;;;20.60;45.60;;;;;;5150816;27;20070;-81
2022/03/19 12:10:57;;;;;;;7.10;1.60;;;20.40;45.30;;;;;;5132231;27;20103;-81
2022/03/19 12:13:29;;;;;;;6.75;2.00;;;19.60;45.30;;;;;;5129703;28;20039;-78
2022/03/19 12:15:56;;;;;;;3.55;1.58;;;19.80;46.90;;;;;;5130695;28;20145;-79
2022/03/19 12:18:29;;;;;;;5.00;1.85;;;20.10;47.80;;;;;;5142327;27;20094;-81
2022/03/19 12:21:00;;;;;;;5.40;1.90;;;20.00;47.70;;;;;;5150358;27;20047;-85
2022/03/19 12:23:27;;;;;;;6.63;1.80;;;20.00;45.60;;;;;;5151459;27;20493;-84
2022/03/19 12:26:00;;;;;;;6.40;1.60;;;20.30;46.60;;;;;;5151429;27;20046;-85
2022/03/19 12:28:29;;;;;;;5.38;1.70;;;20.20;45.70;;;;;;5151018;27;20055;-88
2022/03/19 12:31:08;;;;;;;7.25;1.80;;;19.60;44.00;;;;;;5131772;27;20051;-87
2022/03/19 12:33:34;;;;;;;4.00;1.77;;;19.70;46.90;;;;;;5153158;27;20095;-79
2022/03/19 12:36:20;;;;;;;7.28;2.20;;;19.10;47.60;;;;;;5144557;27;20041;-81
2022/03/19 12:38:48;;;;;;;6.35;2.60;;;19.80;53.60;;;;;;5152962;27;20050;-81
2022/03/19 12:41:26;;;;;;;6.72;2.72;;;20.30;55.40;;;;;;5123419;27;20049;-80
2022/03/19 12:43:56;;;;;;;7.43;2.60;;;20.60;54.70;;;;;;5142880;27;20386;-79
2022/03/19 12:46:27;;;;;;;7.78;2.63;;;20.90;55.30;;;;;;5140836;27;20062;-78
2022/03/19 12:49:12;;;;;;;5.60;2.60;;;20.80;54.40;;;;;;5148412;27;20035;-80
2022/03/19 12:51:42;;;;;;;5.55;2.40;;;20.60;54.40;;;;;;5147100;27;20146;-80
2022/03/19 12:54:22;;;;;;;6.03;2.30;;;20.90;54.90;;;;;;5138289;27;20126;-80
2022/03/19 12:56:49;;;;;;;5.50;2.28;;;19.90;53.60;;;;;;5140252;27;20039;-80
2022/03/19 12:59:27;;;;;;;7.07;2.60;;;19.60;54.70;;;;;;5139729;27;20390;-84
2022/03/19 13:01:54;;;;;;;8.77;2.85;;;19.50;56.00;;;;;;5139832;27;20081;-81
2022/03/19 13:04:21;;;;;;;6.20;2.17;;;19.40;55.90;;;;;;5138311;27;20043;-79
2022/03/19 13:06:47;;;;;;;4.70;2.10;;;19.10;55.80;;;;;;5140678;27;20429;-78
2022/03/19 13:09:13;;;;;;;8.57;2.50;;;18.30;56.90;;;;;;5119989;27;20046;-78
2022/03/19 13:11:48;;;;;;;4.82;2.40;;;18.10;58.60;;;;;;5139011;27;20047;-80
2022/03/19 13:14:14;;;;;;;6.40;2.63;;;17.70;59.70;;;;;;5120040;27;20047;-80
2022/03/19 13:16:45;;;;;;;5.53;2.22;;;16.70;58.90;;;;;;5121085;27;20039;-80
2022/03/19 13:19:12;;;;;;;6.13;2.20;;;16.90;61.90;;;;;;5130168;27;20050;-80
2022/03/19 13:21:42;;;;;;;8.13;2.83;;;16.80;65.30;;;;;;5154756;27;20090;-81
2022/03/19 13:24:12;;;;;;;6.80;2.42;;;16.60;67.20;;;;;;5135256;27;20055;-81
2022/03/19 13:26:40;;;;;;;7.93;2.78;;;16.40;71.30;;;;;;5154304;27;20043;-79
2022/03/19 13:29:10;;;;;;;6.28;2.60;;;16.30;69.40;;;;;;5153914;27;20590;-83
2022/03/19 13:31:48;;;;;;;4.85;2.35;;;16.00;70.90;;;;;;5120586;27;20043;-82